sensor_id;sensor_type;location;lat;lon;timestamp;pressure;altitude;pressure_sealevel;temperature;humidity
72961;BME280;61141;46.204;19.774;2023-03-01T00:00:53;101460.41;;;3.41;97.75
72961;BME280;61141;46.204;19.774;2023-03-01T00:03:56;101475.25;;;3.62;97.34
72961;BME280;61141;46.204;19.774;2023-03-01T00:06:59;101472.12;;;3.55;96.87
72961;BME280;61141;46.204;19.774;2023-03-01T00:10:02;101479.94;;;3.75;95.98
72961;BME280;61141;46.204;19.774;2023-03-01T00:13:06;101483.66;;;3.61;96.54
72961;BME280;61141;46.204;19.774;2023-03-01T00:16:12;101478.81;;;3.76;95.50
72961;BME280;61141;46.204;19.774;2023-03-01T00:19:18;101475.66;;;3.37;97.32
72961;BME280;61141;46.204;19.774;2023-03-01T00:22:21;101473.13;;;3.40;97.50
72961;BME280;61141;46.204;19.774;2023-03-01T00:25:25;101473.72;;;3.56;96.75
72961;BME280;61141;46.204;19.774;2023-03-01T00:28:28;101470.09;;;3.28;97.93
72961;BME280;61141;46.204;19.774;2023-03-01T00:31:32;101464.88;;;3.32;97.54
72961;BME280;61141;46.204;19.774;2023-03-01T00:34:35;101468.88;;;3.16;98.44
72961;BME280;61141;46.204;19.774;2023-03-01T00:37:38;101472.47;;;3.67;96.33
72961;BME280;61141;46.204;19.774;2023-03-01T00:40:42;101472.75;;;3.66;95.66
72961;BME280;61141;46.204;19.774;2023-03-01T00:43:45;101458.84;;;3.72;95.06
72961;BME280;61141;46.204;19.774;2023-03-01T00:46:48;101451.56;;;3.68;95.31
72961;BME280;61141;46.204;19.774;2023-03-01T00:49:51;101446.87;;;3.41;96.17
72961;BME280;61141;46.204;19.774;2023-03-01T00:52:55;101447.06;;;3.63;95.37
72961;BME280;61141;46.204;19.774;2023-03-01T00:55:58;101438.44;;;3.24;96.72
72961;BME280;61141;46.204;19.774;2023-03-01T00:59:01;101422.91;;;3.48;96.09
72961;BME280;61141;46.204;19.774;2023-03-01T01:02:04;101432.53;;;3.22;97.31
72961;BME280;61141;46.204;19.774;2023-03-01T01:05:07;101424.06;;;3.28;97.49
72961;BME280;61141;46.204;19.774;2023-03-01T01:08:10;101425.09;;;2.95;98.90
72961;BME280;61141;46.204;19.774;2023-03-01T01:11:14;101425.88;;;3.33;97.78
72961;BME280;61141;46.204;19.774;2023-03-01T01:14:18;101420.22;;;3.29;98.04
72961;BME280;61141;46.204;19.774;2023-03-01T01:17:21;101417.13;;;3.54;96.44
72961;BME280;61141;46.204;19.774;2023-03-01T01:20:24;101426.37;;;3.16;97.72
72961;BME280;61141;46.204;19.774;2023-03-01T01:23:27;101414.69;;;3.39;97.28
72961;BME280;61141;46.204;19.774;2023-03-01T01:26:31;101404.62;;;3.40;97.03
72961;BME280;61141;46.204;19.774;2023-03-01T01:29:35;101404.22;;;3.14;97.86
72961;BME280;61141;46.204;19.774;2023-03-01T01:32:38;101402.47;;;3.05;97.82
72961;BME280;61141;46.204;19.774;2023-03-01T01:35:45;101405.47;;;3.22;97.68
72961;BME280;61141;46.204;19.774;2023-03-01T01:38:48;101404.81;;;3.11;98.11
72961;BME280;61141;46.204;19.774;2023-03-01T01:41:51;101396.41;;;3.31;97.52
72961;BME280;61141;46.204;19.774;2023-03-01T01:45:30;101393.75;;;3.08;98.38
72961;BME280;61141;46.204;19.774;2023-03-01T01:48:47;101395.47;;;3.04;98.53
72961;BME280;61141;46.204;19.774;2023-03-01T01:51:55;101384.91;;;3.21;97.16
72961;BME280;61141;46.204;19.774;2023-03-01T01:55:04;101395.31;;;3.14;97.07
72961;BME280;61141;46.204;19.774;2023-03-01T01:58:10;101399.59;;;3.33;96.98
72961;BME280;61141;46.204;19.774;2023-03-01T02:01:14;101395.72;;;3.39;95.78
72961;BME280;61141;46.204;19.774;2023-03-01T02:04:18;101390.81;;;3.41;95.83
72961;BME280;61141;46.204;19.774;2023-03-01T02:07:22;101395.31;;;3.46;95.39
72961;BME280;61141;46.204;19.774;2023-03-01T02:10:28;101390.00;;;3.41;95.64
72961;BME280;61141;46.204;19.774;2023-03-01T02:13:33;101387.59;;;3.39;95.96
72961;BME280;61141;46.204;19.774;2023-03-01T02:16:36;101389.22;;;3.22;96.54
72961;BME280;61141;46.204;19.774;2023-03-01T02:22:51;101386.97;;;3.61;94.82
72961;BME280;61141;46.204;19.774;2023-03-01T02:26:21;101378.16;;;3.69;94.73
72961;BME280;61141;46.204;19.774;2023-03-01T02:29:28;101386.56;;;3.68;94.59
72961;BME280;61141;46.204;19.774;2023-03-01T02:32:31;101369.28;;;3.50;94.47
72961;BME280;61141;46.204;19.774;2023-03-01T02:35:37;101377.13;;;3.65;94.67
72961;BME280;61141;46.204;19.774;2023-03-01T02:38:41;101381.53;;;3.61;95.14
72961;BME280;61141;46.204;19.774;2023-03-01T02:41:50;101373.41;;;3.61;95.07
72961;BME280;61141;46.204;19.774;2023-03-01T02:44:54;101360.38;;;3.63;94.46
72961;BME280;61141;46.204;19.774;2023-03-01T02:47:57;101360.38;;;3.63;94.68
72961;BME280;61141;46.204;19.774;2023-03-01T02:51:11;101356.84;;;3.63;94.64
72961;BME280;61141;46.204;19.774;2023-03-01T02:54:22;101362.81;;;3.78;94.23
72961;BME280;61141;46.204;19.774;2023-03-01T02:57:28;101368.25;;;3.78;95.07
72961;BME280;61141;46.204;19.774;2023-03-01T03:00:41;101364.00;;;3.72;95.03
72961;BME280;61141;46.204;19.774;2023-03-01T03:03:49;101355.97;;;3.67;94.05
72961;BME280;61141;46.204;19.774;2023-03-01T03:06:52;101353.66;;;3.74;94.98
72961;BME280;61141;46.204;19.774;2023-03-01T03:09:55;101355.56;;;3.74;94.67
72961;BME280;61141;46.204;19.774;2023-03-01T03:13:01;101355.87;;;3.72;94.91
72961;BME280;61141;46.204;19.774;2023-03-01T03:16:05;101341.53;;;3.72;94.69
72961;BME280;61141;46.204;19.774;2023-03-01T03:19:08;101340.94;;;3.75;94.75
72961;BME280;61141;46.204;19.774;2023-03-01T03:22:12;101335.91;;;3.68;95.19
72961;BME280;61141;46.204;19.774;2023-03-01T03:25:16;101339.44;;;3.82;94.80
72961;BME280;61141;46.204;19.774;2023-03-01T03:28:19;101344.53;;;3.70;94.65
72961;BME280;61141;46.204;19.774;2023-03-01T03:31:22;101339.03;;;3.75;94.57
72961;BME280;61141;46.204;19.774;2023-03-01T03:34:25;101342.75;;;3.79;95.11
72961;BME280;61141;46.204;19.774;2023-03-01T03:37:28;101338.44;;;3.78;95.27
72961;BME280;61141;46.204;19.774;2023-03-01T03:41:03;101347.56;;;3.82;95.44
72961;BME280;61141;46.204;19.774;2023-03-01T03:44:06;101340.72;;;3.71;95.74
72961;BME280;61141;46.204;19.774;2023-03-01T03:47:09;101340.62;;;3.76;95.40
72961;BME280;61141;46.204;19.774;2023-03-01T03:50:15;101343.03;;;3.78;95.37
72961;BME280;61141;46.204;19.774;2023-03-01T03:53:20;101333.81;;;3.79;95.05
72961;BME280;61141;46.204;19.774;2023-03-01T03:56:23;101338.00;;;3.58;96.03
72961;BME280;61141;46.204;19.774;2023-03-01T03:59:30;101339.19;;;3.65;95.44
72961;BME280;61141;46.204;19.774;2023-03-01T04:02:33;101333.91;;;3.74;95.07
72961;BME280;61141;46.204;19.774;2023-03-01T04:05:36;101330.69;;;3.72;95.32
72961;BME280;61141;46.204;19.774;2023-03-01T04:08:40;101323.88;;;4.01;93.01
72961;BME280;61141;46.204;19.774;2023-03-01T04:11:43;101329.31;;;3.88;94.01
72961;BME280;61141;46.204;19.774;2023-03-01T04:14:46;101324.56;;;3.80;93.26
72961;BME280;61141;46.204;19.774;2023-03-01T04:17:51;101325.78;;;3.74;93.98
72961;BME280;61141;46.204;19.774;2023-03-01T04:20:55;101318.53;;;3.55;94.30
72961;BME280;61141;46.204;19.774;2023-03-01T04:23:58;101312.63;;;3.67;93.97
72961;BME280;61141;46.204;19.774;2023-03-01T04:27:01;101314.22;;;3.68;93.92
72961;BME280;61141;46.204;19.774;2023-03-01T04:30:05;101314.13;;;3.73;93.48
72961;BME280;61141;46.204;19.774;2023-03-01T04:33:09;101313.03;;;3.74;93.59
72961;BME280;61141;46.204;19.774;2023-03-01T04:36:14;101309.41;;;3.79;93.32
72961;BME280;61141;46.204;19.774;2023-03-01T04:39:18;101304.50;;;3.67;93.84
72961;BME280;61141;46.204;19.774;2023-03-01T04:42:21;101294.53;;;3.63;93.74
72961;BME280;61141;46.204;19.774;2023-03-01T04:45:23;101308.41;;;3.75;93.30
72961;BME280;61141;46.204;19.774;2023-03-01T04:48:26;101304.41;;;3.86;93.48
72961;BME280;61141;46.204;19.774;2023-03-01T04:51:29;101309.41;;;3.92;93.26
72961;BME280;61141;46.204;19.774;2023-03-01T04:54:33;101305.13;;;3.91;93.46
72961;BME280;61141;46.204;19.774;2023-03-01T04:57:36;101304.81;;;3.93;93.46
72961;BME280;61141;46.204;19.774;2023-03-01T05:00:40;101299.09;;;3.94;93.30
72961;BME280;61141;46.204;19.774;2023-03-01T05:03:44;101293.09;;;3.97;92.87
72961;BME280;61141;46.204;19.774;2023-03-01T05:06:47;101289.78;;;4.00;92.28
72961;BME280;61141;46.204;19.774;2023-03-01T05:09:50;101298.19;;;3.85;92.99
72961;BME280;61141;46.204;19.774;2023-03-01T05:12:57;101298.28;;;3.67;92.97
72961;BME280;61141;46.204;19.774;2023-03-01T05:16:01;101294.37;;;3.73;93.15
72961;BME280;61141;46.204;19.774;2023-03-01T05:19:06;101299.59;;;3.96;91.82
72961;BME280;61141;46.204;19.774;2023-03-01T05:22:14;101297.75;;;3.51;93.59
72961;BME280;61141;46.204;19.774;2023-03-01T05:25:17;101300.09;;;3.85;92.58
72961;BME280;61141;46.204;19.774;2023-03-01T05:28:20;101303.28;;;3.73;92.74
72961;BME280;61141;46.204;19.774;2023-03-01T05:31:23;101309.84;;;3.99;91.65
72961;BME280;61141;46.204;19.774;2023-03-01T05:34:31;101306.00;;;3.73;92.54
72961;BME280;61141;46.204;19.774;2023-03-01T05:37:34;101300.50;;;3.78;92.66
72961;BME280;61141;46.204;19.774;2023-03-01T05:40:41;101313.75;;;3.93;91.48
72961;BME280;61141;46.204;19.774;2023-03-01T05:43:44;101311.41;;;3.73;92.28
72961;BME280;61141;46.204;19.774;2023-03-01T05:46:47;101302.69;;;3.76;91.82
72961;BME280;61141;46.204;19.774;2023-03-01T05:49:50;101313.41;;;3.54;92.59
72961;BME280;61141;46.204;19.774;2023-03-01T05:53:03;101310.28;;;3.47;93.54
72961;BME280;61141;46.204;19.774;2023-03-01T05:56:08;101317.84;;;3.64;93.19
72961;BME280;61141;46.204;19.774;2023-03-01T05:59:11;101295.81;;;3.38;93.05
72961;BME280;61141;46.204;19.774;2023-03-01T06:02:14;101318.22;;;3.57;93.35
72961;BME280;61141;46.204;19.774;2023-03-01T06:05:19;101313.84;;;4.02;92.66
72961;BME280;61141;46.204;19.774;2023-03-01T06:08:22;101322.47;;;3.90;93.02
72961;BME280;61141;46.204;19.774;2023-03-01T06:11:26;101326.09;;;3.72;94.09
72961;BME280;61141;46.204;19.774;2023-03-01T06:14:29;101318.94;;;3.76;93.22
72961;BME280;61141;46.204;19.774;2023-03-01T06:17:34;101317.16;;;3.85;93.24
72961;BME280;61141;46.204;19.774;2023-03-01T06:20:41;101324.09;;;3.91;92.47
72961;BME280;61141;46.204;19.774;2023-03-01T06:23:44;101326.19;;;3.94;92.78
72961;BME280;61141;46.204;19.774;2023-03-01T06:26:47;101329.31;;;4.01;92.42
72961;BME280;61141;46.204;19.774;2023-03-01T06:29:50;101327.09;;;4.31;92.02
72961;BME280;61141;46.204;19.774;2023-03-01T06:32:53;101341.59;;;4.62;91.06
72961;BME280;61141;46.204;19.774;2023-03-01T06:36:04;101339.34;;;4.42;90.42
72961;BME280;61141;46.204;19.774;2023-03-01T06:39:07;101334.63;;;4.83;88.87
72961;BME280;61141;46.204;19.774;2023-03-01T06:42:10;101321.34;;;4.46;89.73
72961;BME280;61141;46.204;19.774;2023-03-01T06:45:13;101339.41;;;4.37;90.47
72961;BME280;61141;46.204;19.774;2023-03-01T06:48:16;101339.50;;;4.45;90.95
72961;BME280;61141;46.204;19.774;2023-03-01T06:51:19;101341.87;;;4.74;90.04
72961;BME280;61141;46.204;19.774;2023-03-01T06:54:22;101335.59;;;4.51;89.94
72961;BME280;61141;46.204;19.774;2023-03-01T06:57:25;101328.16;;;4.93;89.36
72961;BME280;61141;46.204;19.774;2023-03-01T07:00:31;101338.44;;;4.82;88.93
72961;BME280;61141;46.204;19.774;2023-03-01T07:03:34;101337.66;;;5.26;87.79
72961;BME280;61141;46.204;19.774;2023-03-01T07:06:37;101335.53;;;4.79;89.29
72961;BME280;61141;46.204;19.774;2023-03-01T07:09:40;101345.72;;;4.59;89.55
72961;BME280;61141;46.204;19.774;2023-03-01T07:12:43;101343.22;;;4.99;88.71
72961;BME280;61141;46.204;19.774;2023-03-01T07:15:46;101336.50;;;4.47;90.94
72961;BME280;61141;46.204;19.774;2023-03-01T07:18:49;101330.06;;;4.43;91.45
72961;BME280;61141;46.204;19.774;2023-03-01T07:21:51;101339.94;;;4.39;92.74
72961;BME280;61141;46.204;19.774;2023-03-01T07:24:54;101344.44;;;4.93;90.69
72961;BME280;61141;46.204;19.774;2023-03-01T07:27:57;101339.69;;;4.62;91.49
72961;BME280;61141;46.204;19.774;2023-03-01T07:31:05;101340.06;;;4.83;90.37
72961;BME280;61141;46.204;19.774;2023-03-01T07:34:08;101337.09;;;4.93;89.95
72961;BME280;61141;46.204;19.774;2023-03-01T07:37:11;101345.44;;;4.61;90.58
72961;BME280;61141;46.204;19.774;2023-03-01T07:40:15;101329.72;;;5.29;88.80
72961;BME280;61141;46.204;19.774;2023-03-01T07:43:19;101313.50;;;4.58;89.81
72961;BME280;61141;46.204;19.774;2023-03-01T07:46:23;101322.97;;;5.05;88.62
72961;BME280;61141;46.204;19.774;2023-03-01T07:49:26;101315.44;;;5.02;88.77
72961;BME280;61141;46.204;19.774;2023-03-01T07:52:30;101334.50;;;4.88;88.50
72961;BME280;61141;46.204;19.774;2023-03-01T07:55:33;101325.03;;;4.63;89.07
72961;BME280;61141;46.204;19.774;2023-03-01T07:58:37;101331.09;;;5.80;86.20
72961;BME280;61141;46.204;19.774;2023-03-01T08:01:40;101321.63;;;5.16;85.86
72961;BME280;61141;46.204;19.774;2023-03-01T08:04:44;101320.56;;;5.03;87.39
72961;BME280;61141;46.204;19.774;2023-03-01T08:07:46;101325.37;;;5.28;87.23
72961;BME280;61141;46.204;19.774;2023-03-01T08:10:50;101337.12;;;5.15;87.94
72961;BME280;61141;46.204;19.774;2023-03-01T08:13:53;101324.59;;;5.59;87.32
72961;BME280;61141;46.204;19.774;2023-03-01T08:16:56;101323.22;;;5.70;85.27
72961;BME280;61141;46.204;19.774;2023-03-01T08:19:59;101322.78;;;5.46;86.79
72961;BME280;61141;46.204;19.774;2023-03-01T08:23:03;101310.06;;;5.32;86.08
72961;BME280;61141;46.204;19.774;2023-03-01T08:29:15;101307.84;;;5.65;85.23
72961;BME280;61141;46.204;19.774;2023-03-01T08:32:18;101303.38;;;6.00;84.66
72961;BME280;61141;46.204;19.774;2023-03-01T08:35:21;101309.91;;;5.60;85.41
72961;BME280;61141;46.204;19.774;2023-03-01T08:38:24;101304.84;;;6.06;84.16
72961;BME280;61141;46.204;19.774;2023-03-01T08:41:27;101305.63;;;5.67;83.75
72961;BME280;61141;46.204;19.774;2023-03-01T08:44:30;101289.31;;;5.67;84.56
72961;BME280;61141;46.204;19.774;2023-03-01T08:47:33;101296.00;;;5.61;85.34
72961;BME280;61141;46.204;19.774;2023-03-01T08:50:37;101285.03;;;5.75;84.98
72961;BME280;61141;46.204;19.774;2023-03-01T08:53:42;101291.69;;;6.73;82.69
72961;BME280;61141;46.204;19.774;2023-03-01T08:56:46;101285.09;;;6.83;81.36
72961;BME280;61141;46.204;19.774;2023-03-01T08:59:49;101295.34;;;6.60;81.00
72961;BME280;61141;46.204;19.774;2023-03-01T09:02:52;101296.91;;;6.18;83.20
72961;BME280;61141;46.204;19.774;2023-03-01T09:05:59;101288.09;;;6.30;82.85
72961;BME280;61141;46.204;19.774;2023-03-01T09:09:04;101285.22;;;5.78;83.69
72961;BME280;61141;46.204;19.774;2023-03-01T09:12:07;101278.72;;;5.97;83.62
72961;BME280;61141;46.204;19.774;2023-03-01T09:15:10;101282.34;;;6.23;83.00
72961;BME280;61141;46.204;19.774;2023-03-01T09:18:13;101273.81;;;5.68;84.50
72961;BME280;61141;46.204;19.774;2023-03-01T09:21:17;101268.03;;;6.00;84.70
72961;BME280;61141;46.204;19.774;2023-03-01T09:24:32;101279.69;;;5.92;83.09
72961;BME280;61141;46.204;19.774;2023-03-01T09:27:35;101251.25;;;6.07;83.60
72961;BME280;61141;46.204;19.774;2023-03-01T09:30:41;101264.37;;;6.13;83.77
72961;BME280;61141;46.204;19.774;2023-03-01T09:33:49;101265.50;;;6.04;83.67
72961;BME280;61141;46.204;19.774;2023-03-01T09:36:52;101270.47;;;5.71;84.20
72961;BME280;61141;46.204;19.774;2023-03-01T09:39:55;101270.47;;;6.02;83.83
72961;BME280;61141;46.204;19.774;2023-03-01T09:43:15;101264.37;;;6.13;83.07
72961;BME280;61141;46.204;19.774;2023-03-01T09:46:22;101262.97;;;7.01;81.09
72961;BME280;61141;46.204;19.774;2023-03-01T09:49:30;101275.44;;;6.17;81.93
72961;BME280;61141;46.204;19.774;2023-03-01T09:52:40;101266.84;;;6.49;81.73
72961;BME280;61141;46.204;19.774;2023-03-01T09:59:00;101285.44;;;6.98;79.48
72961;BME280;61141;46.204;19.774;2023-03-01T10:02:27;101290.81;;;6.30;81.32
72961;BME280;61141;46.204;19.774;2023-03-01T10:08:57;101276.16;;;6.57;81.52
72961;BME280;61141;46.204;19.774;2023-03-01T10:12:02;101276.75;;;6.36;81.77
72961;BME280;61141;46.204;19.774;2023-03-01T10:15:15;101279.34;;;6.50;81.71
72961;BME280;61141;46.204;19.774;2023-03-01T10:18:25;101274.22;;;6.66;81.26
72961;BME280;61141;46.204;19.774;2023-03-01T10:21:29;101267.19;;;6.56;81.33
72961;BME280;61141;46.204;19.774;2023-03-01T10:24:36;101276.94;;;6.40;82.02
72961;BME280;61141;46.204;19.774;2023-03-01T10:27:49;101270.84;;;6.86;80.38
72961;BME280;61141;46.204;19.774;2023-03-01T10:30:54;101264.91;;;6.49;81.14
72961;BME280;61141;46.204;19.774;2023-03-01T10:33:57;101250.53;;;6.66;80.71
72961;BME280;61141;46.204;19.774;2023-03-01T10:37:19;101251.94;;;7.15;80.36
72961;BME280;61141;46.204;19.774;2023-03-01T10:40:27;101234.94;;;7.09;78.58
72961;BME280;61141;46.204;19.774;2023-03-01T10:46:59;101231.09;;;7.10;79.19
72961;BME280;61141;46.204;19.774;2023-03-01T10:50:05;101235.31;;;7.46;79.20
72961;BME280;61141;46.204;19.774;2023-03-01T10:53:22;101235.97;;;7.81;77.14
72961;BME280;61141;46.204;19.774;2023-03-01T10:56:46;101234.69;;;8.07;76.73
72961;BME280;61141;46.204;19.774;2023-03-01T11:00:00;101230.56;;;8.31;75.60
72961;BME280;61141;46.204;19.774;2023-03-01T11:03:13;101223.37;;;7.67;77.11
72961;BME280;61141;46.204;19.774;2023-03-01T11:06:21;101215.00;;;8.02;74.85
72961;BME280;61141;46.204;19.774;2023-03-01T11:09:25;101207.09;;;7.80;77.78
72961;BME280;61141;46.204;19.774;2023-03-01T11:12:29;101191.44;;;7.97;76.03
72961;BME280;61141;46.204;19.774;2023-03-01T11:15:32;101194.03;;;7.94;76.69
72961;BME280;61141;46.204;19.774;2023-03-01T11:18:35;101196.66;;;7.82;76.42
72961;BME280;61141;46.204;19.774;2023-03-01T11:21:57;101183.53;;;8.25;76.26
72961;BME280;61141;46.204;19.774;2023-03-01T11:25:02;101177.78;;;8.18;76.55
72961;BME280;61141;46.204;19.774;2023-03-01T11:28:15;101172.94;;;7.74;77.38
72961;BME280;61141;46.204;19.774;2023-03-01T11:31:21;101163.78;;;8.49;75.83
72961;BME280;61141;46.204;19.774;2023-03-01T11:34:39;101174.66;;;8.07;76.73
72961;BME280;61141;46.204;19.774;2023-03-01T11:41:26;101160.94;;;8.78;74.77
72961;BME280;61141;46.204;19.774;2023-03-01T11:44:33;101151.63;;;9.03;74.36
72961;BME280;61141;46.204;19.774;2023-03-01T11:50:47;101145.06;;;9.16;74.27
72961;BME280;61141;46.204;19.774;2023-03-01T11:54:07;101130.12;;;9.02;73.68
72961;BME280;61141;46.204;19.774;2023-03-01T12:01:15;101127.59;;;9.93;70.82
72961;BME280;61141;46.204;19.774;2023-03-01T12:12:00;101102.28;;;9.96;71.59
72961;BME280;61141;46.204;19.774;2023-03-01T12:35:03;101076.00;;;9.56;73.40
72961;BME280;61141;46.204;19.774;2023-03-01T12:38:13;101073.84;;;9.61;73.01
72961;BME280;61141;46.204;19.774;2023-03-01T12:48:19;101062.00;;;9.57;74.25
72961;BME280;61141;46.204;19.774;2023-03-01T12:51:30;101053.34;;;9.55;73.54
72961;BME280;61141;46.204;19.774;2023-03-01T12:54:35;101058.22;;;9.62;73.79
72961;BME280;61141;46.204;19.774;2023-03-01T12:57:45;101066.72;;;9.84;73.03
72961;BME280;61141;46.204;19.774;2023-03-01T13:04:07;101058.78;;;9.67;74.69
72961;BME280;61141;46.204;19.774;2023-03-01T13:10:51;101043.69;;;10.25;72.30
72961;BME280;61141;46.204;19.774;2023-03-01T13:17:39;101042.75;;;9.93;73.20
72961;BME280;61141;46.204;19.774;2023-03-01T13:20:48;101044.00;;;9.96;72.60
72961;BME280;61141;46.204;19.774;2023-03-01T13:23:51;101028.31;;;10.09;72.99
72961;BME280;61141;46.204;19.774;2023-03-01T13:33:55;101035.00;;;9.95;73.35
72961;BME280;61141;46.204;19.774;2023-03-01T13:37:09;101033.59;;;10.01;73.28
72961;BME280;61141;46.204;19.774;2023-03-01T13:43:37;101029.09;;;9.93;73.27
72961;BME280;61141;46.204;19.774;2023-03-01T13:46:40;101028.84;;;9.98;72.62
72961;BME280;61141;46.204;19.774;2023-03-01T13:49:52;101037.28;;;10.49;71.89
72961;BME280;61141;46.204;19.774;2023-03-01T13:52:59;101033.41;;;10.66;71.81
72961;BME280;61141;46.204;19.774;2023-03-01T13:56:45;101035.34;;;10.65;70.46
72961;BME280;61141;46.204;19.774;2023-03-01T13:59:47;101033.47;;;10.38;72.01
72961;BME280;61141;46.204;19.774;2023-03-01T14:06:12;101025.69;;;10.55;70.70
72961;BME280;61141;46.204;19.774;2023-03-01T14:09:26;101010.78;;;10.53;71.14
72961;BME280;61141;46.204;19.774;2023-03-01T14:12:43;101006.63;;;10.43;71.41
72961;BME280;61141;46.204;19.774;2023-03-01T14:19:19;101010.47;;;10.27;72.29
72961;BME280;61141;46.204;19.774;2023-03-01T14:22:35;101002.06;;;10.20;72.23
72961;BME280;61141;46.204;19.774;2023-03-01T14:25:50;100995.72;;;10.03;72.21
72961;BME280;61141;46.204;19.774;2023-03-01T14:28:55;101003.13;;;10.15;72.50
72961;BME280;61141;46.204;19.774;2023-03-01T14:32:09;100994.59;;;10.63;72.09
72961;BME280;61141;46.204;19.774;2023-03-01T14:35:30;100988.50;;;10.39;71.52
72961;BME280;61141;46.204;19.774;2023-03-01T14:41:43;100976.84;;;10.42;71.76
72961;BME280;61141;46.204;19.774;2023-03-01T14:44:49;100964.62;;;10.24;72.53
72961;BME280;61141;46.204;19.774;2023-03-01T14:47:53;100966.22;;;10.25;72.24
72961;BME280;61141;46.204;19.774;2023-03-01T14:50:58;100962.72;;;10.12;72.88
72961;BME280;61141;46.204;19.774;2023-03-01T14:54:02;100955.81;;;10.02;73.86
72961;BME280;61141;46.204;19.774;2023-03-01T14:57:15;100950.34;;;10.02;73.33
72961;BME280;61141;46.204;19.774;2023-03-01T15:00:22;100952.34;;;10.33;72.56
72961;BME280;61141;46.204;19.774;2023-03-01T15:03:38;100957.38;;;10.16;73.46
72961;BME280;61141;46.204;19.774;2023-03-01T15:06:43;100933.56;;;10.04;73.03
72961;BME280;61141;46.204;19.774;2023-03-01T15:09:47;100945.47;;;9.96;73.83
72961;BME280;61141;46.204;19.774;2023-03-01T15:12:50;100946.91;;;10.05;73.02
72961;BME280;61141;46.204;19.774;2023-03-01T15:16:07;100943.62;;;10.00;73.49
72961;BME280;61141;46.204;19.774;2023-03-01T15:19:16;100927.12;;;9.96;73.97
72961;BME280;61141;46.204;19.774;2023-03-01T15:22:21;100920.56;;;9.85;73.68
72961;BME280;61141;46.204;19.774;2023-03-01T15:25:28;100926.47;;;9.87;73.90
72961;BME280;61141;46.204;19.774;2023-03-01T15:28:34;100937.72;;;9.98;73.35
72961;BME280;61141;46.204;19.774;2023-03-01T15:31:40;100928.41;;;9.87;73.87
72961;BME280;61141;46.204;19.774;2023-03-01T15:34:43;100935.06;;;10.01;73.64
72961;BME280;61141;46.204;19.774;2023-03-01T15:37:48;100928.69;;;9.97;74.26
72961;BME280;61141;46.204;19.774;2023-03-01T15:40:52;100930.56;;;9.93;74.27
72961;BME280;61141;46.204;19.774;2023-03-01T15:43:55;100927.44;;;9.79;74.06
72961;BME280;61141;46.204;19.774;2023-03-01T15:46:59;100918.78;;;9.77;74.45
72961;BME280;61141;46.204;19.774;2023-03-01T15:50:02;100919.66;;;9.81;74.24
72961;BME280;61141;46.204;19.774;2023-03-01T15:53:11;100909.94;;;9.68;75.21
72961;BME280;61141;46.204;19.774;2023-03-01T15:56:16;100922.66;;;9.76;74.62
72961;BME280;61141;46.204;19.774;2023-03-01T15:59:19;100927.75;;;9.62;75.00
72961;BME280;61141;46.204;19.774;2023-03-01T16:02:24;100924.00;;;9.55;75.43
72961;BME280;61141;46.204;19.774;2023-03-01T16:05:31;100921.31;;;9.70;74.97
72961;BME280;61141;46.204;19.774;2023-03-01T16:08:34;100919.91;;;9.61;75.88
72961;BME280;61141;46.204;19.774;2023-03-01T16:11:37;100917.50;;;9.59;75.70
72961;BME280;61141;46.204;19.774;2023-03-01T16:14:42;100923.78;;;9.48;76.49
72961;BME280;61141;46.204;19.774;2023-03-01T16:17:46;100921.87;;;9.48;76.67
72961;BME280;61141;46.204;19.774;2023-03-01T16:20:56;100918.16;;;9.28;77.23
72961;BME280;61141;46.204;19.774;2023-03-01T16:23:59;100938.78;;;9.26;77.69
72961;BME280;61141;46.204;19.774;2023-03-01T16:27:02;100932.22;;;9.15;77.97
72961;BME280;61141;46.204;19.774;2023-03-01T16:30:07;100933.00;;;9.15;78.21
72961;BME280;61141;46.204;19.774;2023-03-01T16:33:13;100946.47;;;9.08;78.50
72961;BME280;61141;46.204;19.774;2023-03-01T16:36:35;100941.69;;;9.05;78.62
72961;BME280;61141;46.204;19.774;2023-03-01T16:39:39;100936.72;;;8.83;79.25
72961;BME280;61141;46.204;19.774;2023-03-01T16:42:42;100944.22;;;8.74;79.53
72961;BME280;61141;46.204;19.774;2023-03-01T16:45:45;100940.69;;;8.73;79.63
72961;BME280;61141;46.204;19.774;2023-03-01T16:48:50;100942.75;;;8.52;80.46
72961;BME280;61141;46.204;19.774;2023-03-01T16:51:53;100946.25;;;8.41;81.05
72961;BME280;61141;46.204;19.774;2023-03-01T16:54:56;100947.50;;;8.31;81.34
72961;BME280;61141;46.204;19.774;2023-03-01T16:57:59;100945.37;;;8.16;81.79
72961;BME280;61141;46.204;19.774;2023-03-01T17:01:09;100936.47;;;7.95;82.54
72961;BME280;61141;46.204;19.774;2023-03-01T17:04:13;100931.84;;;7.75;82.73
72961;BME280;61141;46.204;19.774;2023-03-01T17:07:16;100936.94;;;7.64;83.13
72961;BME280;61141;46.204;19.774;2023-03-01T17:10:19;100942.78;;;7.54;83.82
72961;BME280;61141;46.204;19.774;2023-03-01T17:13:25;100931.25;;;7.36;85.15
72961;BME280;61141;46.204;19.774;2023-03-01T17:16:28;100932.97;;;7.20;85.13
72961;BME280;61141;46.204;19.774;2023-03-01T17:19:33;100931.87;;;7.12;85.89
72961;BME280;61141;46.204;19.774;2023-03-01T17:22:39;100938.13;;;7.13;86.31
72961;BME280;61141;46.204;19.774;2023-03-01T17:25:43;100948.56;;;7.11;86.41
72961;BME280;61141;46.204;19.774;2023-03-01T17:28:49;100942.91;;;6.95;86.48
72961;BME280;61141;46.204;19.774;2023-03-01T17:31:54;100938.22;;;6.75;86.85
72961;BME280;61141;46.204;19.774;2023-03-01T17:34:58;100949.50;;;6.65;87.81
72961;BME280;61141;46.204;19.774;2023-03-01T17:38:03;100944.44;;;6.84;87.27
72961;BME280;61141;46.204;19.774;2023-03-01T17:41:06;100932.78;;;6.46;88.08
72961;BME280;61141;46.204;19.774;2023-03-01T17:44:10;100944.03;;;6.27;89.28